Brighouse, United Kingdom
Current Conditions -  °F | °C
As of 10:20 AM on Thursday 27 Nov 2014 (Local Time) from EGNM Reporting Station
Moderate Fog Moderate Fog  
Wind Chill: 43°   Ceiling: Unl
Heat Index: 43°   Visibility: 0.06mi
Dew Point: 43°   Wind: 3mph
Humidity: 100%   Direction: NA
Pressure: 29.59"   Gusts: NA
Location:  53.7°N, 1.78°W
Report Text: EGNM 271020Z VRB03KT 0100 R32/0250 FG VV/// 06/06 Q1002
Loading
Personal Weather Stations






























Interactive Weather Map New forecast layout! Learn more

10-Day Weather Forecast

Advertisements
Track Severe Weather on mobile